createdAt,value
2023-01-21T00:04:47.683Z,-31.36
2023-01-21T00:09:51.552Z,-31.59
2023-01-21T00:14:58.289Z,-31.54
2023-01-21T00:20:07.074Z,-31.96
2023-01-21T00:25:11.064Z,-31.59
2023-01-21T00:30:17.668Z,-31.71
2023-01-21T00:35:21.895Z,-32.03
2023-01-21T00:40:28.113Z,-31.87
2023-01-21T00:45:33.831Z,-31.54
2023-01-21T00:50:39.439Z,-31.53
2023-01-21T00:55:44.057Z,-31.24
2023-01-21T01:00:48.850Z,-31.19
2023-01-21T01:05:52.535Z,-31.06
2023-01-21T01:10:58.069Z,-31.05
2023-01-21T01:16:06.290Z,-31.02
2023-01-21T01:21:14.382Z,-31.19
2023-01-21T01:26:22.799Z,-31.07
2023-01-21T01:31:27.693Z,-31.13
2023-01-21T01:36:32.850Z,-31.10
2023-01-21T01:41:37.968Z,-31.21
2023-01-21T01:46:41.771Z,-31.21
2023-01-21T01:52:00.735Z,-31.41
2023-01-21T01:57:11.136Z,-31.62
2023-01-21T02:02:19.620Z,-31.80
2023-01-21T02:07:28.131Z,-31.87
2023-01-21T02:12:34.328Z,-31.95
2023-01-21T02:17:55.804Z,-31.93
2023-01-21T02:23:11.307Z,-31.96
2023-01-21T02:28:43.691Z,-32.44
2023-01-21T02:34:13.673Z,-31.97
2023-01-21T02:39:50.299Z,-31.97
2023-01-21T02:45:27.985Z,-31.98
2023-01-21T02:50:45.692Z,-31.92
2023-01-21T02:55:49.426Z,-32.40
2023-01-21T03:01:19.442Z,-31.89
2023-01-21T03:07:09.248Z,-32.05
2023-01-21T03:12:45.077Z,-31.76
2023-01-21T03:18:09.541Z,-31.53
2023-01-21T03:23:22.408Z,-31.36
2023-01-21T03:28:34.149Z,-31.12
2023-01-21T03:33:46.609Z,-31.12
2023-01-21T03:38:59.518Z,-30.84
2023-01-21T03:44:04.533Z,-31.03
2023-01-21T03:49:56.932Z,-30.37
2023-01-21T03:55:02.262Z,-30.37
2023-01-21T04:00:08.155Z,-30.34
2023-01-21T04:05:12.002Z,-30.17
2023-01-21T04:10:18.525Z,-30.03
2023-01-21T04:15:22.417Z,-29.91
2023-01-21T04:20:49.736Z,-29.80
2023-01-21T04:25:53.734Z,-29.65
2023-01-21T04:30:59.283Z,-29.70
2023-01-21T04:36:03.846Z,-29.67
2023-01-21T04:41:08.467Z,-30.09
2023-01-21T04:46:13.921Z,-29.53
2023-01-21T04:51:17.746Z,-29.44
2023-01-21T04:56:21.579Z,-29.27
2023-01-21T05:01:27.730Z,-29.19
2023-01-21T05:06:31.582Z,-29.27
2023-01-21T05:11:36.981Z,-29.22
2023-01-21T05:16:40.858Z,-29.18
2023-01-21T05:21:44.937Z,-29.17
2023-01-21T05:26:52.459Z,-29.25
2023-01-21T05:31:57.855Z,-29.40
2023-01-21T05:37:01.660Z,-29.45
2023-01-21T05:42:05.885Z,-29.38
2023-01-21T05:47:09.675Z,-29.42
2023-01-21T05:52:17.398Z,-29.55
2023-01-21T05:57:21.210Z,-29.41
2023-01-21T06:02:25.658Z,-30.01
2023-01-21T06:07:29.550Z,-29.57
2023-01-21T06:12:33.545Z,-29.56
2023-01-21T06:17:39.345Z,-29.32
2023-01-21T06:22:43.165Z,-29.21
2023-01-21T06:27:48.227Z,-29.48
2023-01-21T06:32:52.862Z,-29.21
2023-01-21T06:37:58.001Z,-29.30
2023-01-21T06:43:01.816Z,-29.09
2023-01-21T06:48:07.098Z,-29.24
2023-01-21T06:53:10.606Z,-29.13
2023-01-21T06:58:16.699Z,-29.08
2023-01-21T07:03:22.956Z,-28.93
2023-01-21T07:08:26.887Z,-28.88
2023-01-21T07:13:30.584Z,-28.87
2023-01-21T07:18:37.725Z,-28.84
2023-01-21T07:23:41.737Z,-28.87
2023-01-21T07:28:47.606Z,-28.78
2023-01-21T07:33:52.548Z,-28.65
2023-01-21T07:38:58.628Z,-28.62
2023-01-21T07:44:03.158Z,-28.91
2023-01-21T07:49:09.473Z,-28.56
2023-01-21T07:54:15.303Z,-28.64
2023-01-21T07:59:19.959Z,-28.59
2023-01-21T08:04:23.830Z,-28.37
2023-01-21T08:09:35.569Z,-28.28
2023-01-21T08:14:39.635Z,-28.23
2023-01-21T08:19:48.466Z,-28.16
2023-01-21T08:24:54.875Z,-27.93
2023-01-21T08:29:58.866Z,-27.87
2023-01-21T08:35:03.483Z,-27.97
2023-01-21T08:40:11.277Z,-27.82
2023-01-21T08:45:18.777Z,-27.90
2023-01-21T08:50:26.260Z,-27.93
2023-01-21T08:55:32.524Z,-27.90
2023-01-21T09:00:38.969Z,-27.92
2023-01-21T09:05:44.369Z,-27.79
2023-01-21T09:11:04.918Z,-27.88
2023-01-21T09:16:11.877Z,-27.87
2023-01-21T09:21:17.270Z,-27.90
2023-01-21T09:26:23.730Z,-27.90
2023-01-21T09:31:32.940Z,-27.95
2023-01-21T09:36:37.916Z,-27.99
2023-01-21T09:41:50.777Z,-28.02
2023-01-21T09:47:10.671Z,-28.07
2023-01-21T09:52:33.797Z,-28.08
2023-01-21T09:57:51.550Z,-28.08
2023-01-21T10:03:16.027Z,-28.07
2023-01-21T10:08:50.042Z,-28.05
2023-01-21T10:14:17.618Z,-28.06
2023-01-21T10:19:33.240Z,-28.21
2023-01-21T10:24:46.969Z,-28.15
2023-01-21T10:29:58.728Z,-28.15
2023-01-21T10:35:19.503Z,-28.38
2023-01-21T10:40:45.359Z,-28.44
2023-01-21T10:46:13.621Z,-28.63
2023-01-21T10:51:46.833Z,-29.08
2023-01-21T10:57:03.328Z,-29.00
2023-01-21T11:02:10.757Z,-29.36
2023-01-21T11:07:20.636Z,-29.66
2023-01-21T11:12:25.459Z,-29.65
2023-01-21T11:17:35.344Z,-29.80
2023-01-21T11:22:46.229Z,-30.47
2023-01-21T11:27:50.015Z,-30.12
2023-01-21T11:32:54.668Z,-30.33
2023-01-21T11:38:01.347Z,-30.45
2023-01-21T11:43:05.076Z,-30.53
2023-01-21T11:48:23.761Z,-30.61
2023-01-21T11:53:27.857Z,-30.66
2023-01-21T11:58:35.542Z,-30.82
2023-01-21T12:03:54.859Z,-30.95
2023-01-21T12:09:09.769Z,-31.03
2023-01-21T12:14:36.556Z,-31.05
2023-01-21T12:20:08.132Z,-31.50
2023-01-21T12:25:33.439Z,-31.36
2023-01-21T12:31:03.434Z,-31.51
2023-01-21T12:36:38.503Z,-31.51
2023-01-21T12:41:48.402Z,-31.84
2023-01-21T12:46:59.598Z,-31.88
2023-01-21T12:52:13.507Z,-31.98
2023-01-21T12:57:50.934Z,-32.03
2023-01-21T13:03:10.997Z,-32.63
2023-01-21T13:08:41.477Z,-32.46
2023-01-21T13:14:09.320Z,-32.04
2023-01-21T13:19:18.027Z,-32.07
2023-01-21T13:24:55.481Z,-31.80
2023-01-21T13:30:22.311Z,-31.64
2023-01-21T13:35:34.654Z,-31.49
2023-01-21T13:41:15.136Z,-31.29
2023-01-21T13:46:38.614Z,-31.08
2023-01-21T13:52:04.740Z,-31.08
2023-01-21T13:57:20.439Z,-31.01
2023-01-21T14:02:36.866Z,-31.00
2023-01-21T14:07:47.243Z,-31.07
2023-01-21T14:13:25.746Z,-31.14
2023-01-21T14:18:34.804Z,-31.15
2023-01-21T14:23:54.866Z,-31.13
2023-01-21T14:29:16.801Z,-31.56
2023-01-21T14:34:52.773Z,-31.11
2023-01-21T14:40:30.425Z,-31.18
2023-01-21T14:46:24.869Z,-31.26
2023-01-21T14:51:32.731Z,-31.40
2023-01-21T14:56:40.952Z,-31.45
2023-01-21T15:01:49.221Z,-31.53
2023-01-21T15:07:19.094Z,-31.53
2023-01-21T15:12:31.406Z,-31.56
2023-01-21T15:17:54.833Z,-31.69
2023-01-21T15:23:32.580Z,-31.83
2023-01-21T15:28:57.520Z,-31.86
2023-01-21T15:34:08.009Z,-31.93
2023-01-21T15:39:23.968Z,-31.96
2023-01-21T15:44:47.122Z,-31.99
2023-01-21T15:50:02.858Z,-32.03
2023-01-21T15:55:46.646Z,-32.02
2023-01-21T16:01:03.144Z,-32.03
2023-01-21T16:06:36.684Z,-32.03
2023-01-21T16:11:49.393Z,-32.03
2023-01-21T16:17:23.972Z,-32.12
2023-01-21T16:22:37.415Z,-32.19
2023-01-21T16:27:49.446Z,-32.18
2023-01-21T16:33:12.446Z,-32.07
2023-01-21T16:38:28.289Z,-32.04
2023-01-21T16:43:32.603Z,-32.49
2023-01-21T16:48:39.638Z,-32.27
2023-01-21T16:53:49.978Z,-32.26
2023-01-21T16:58:53.896Z,-32.41
2023-01-21T17:04:01.966Z,-32.44
2023-01-21T17:09:09.314Z,-32.53
2023-01-21T17:14:25.819Z,-32.56
2023-01-21T17:19:39.541Z,-32.50
2023-01-21T17:25:29.975Z,-32.51
2023-01-21T17:30:36.489Z,-32.56
2023-01-21T17:36:10.881Z,-32.57
2023-01-21T17:41:25.669Z,-32.94
2023-01-21T17:46:32.955Z,-33.05
2023-01-21T17:51:38.902Z,-33.07
2023-01-21T17:56:49.471Z,-33.03
2023-01-21T18:01:54.168Z,-33.17
2023-01-21T18:07:01.138Z,-33.29
2023-01-21T18:12:05.174Z,-33.37
2023-01-21T18:17:24.747Z,-33.67
2023-01-21T18:22:31.262Z,-34.13
2023-01-21T18:27:37.634Z,-34.10
2023-01-21T18:32:42.794Z,-33.90
2023-01-21T18:37:49.417Z,-33.90
2023-01-21T18:42:56.613Z,-33.80
2023-01-21T18:48:00.706Z,-33.54
2023-01-21T18:53:07.076Z,-33.70
2023-01-21T18:58:15.370Z,-34.43
2023-01-21T19:03:19.532Z,-34.18
2023-01-21T19:08:29.403Z,-34.53
2023-01-21T19:13:34.787Z,-34.92
2023-01-21T19:18:39.860Z,-35.32
2023-01-21T19:23:43.655Z,-35.49
2023-01-21T19:28:50.901Z,-35.50
2023-01-21T19:33:56.533Z,-35.73
2023-01-21T19:39:05.540Z,-35.34
2023-01-21T19:44:09.558Z,-35.37
2023-01-21T19:49:16.519Z,-35.26
2023-01-21T19:54:21.983Z,-35.15
2023-01-21T19:59:25.710Z,-35.13
2023-01-21T20:04:30.463Z,-35.24
2023-01-21T20:09:34.233Z,-35.10
2023-01-21T20:14:39.007Z,-35.21
2023-01-21T20:19:44.320Z,-35.50
2023-01-21T20:24:48.988Z,-35.56
2023-01-21T20:30:02.791Z,-35.85
2023-01-21T20:35:20.555Z,-35.91
2023-01-21T20:40:30.910Z,-35.86
2023-01-21T20:45:42.737Z,-35.88
2023-01-21T20:50:46.903Z,-35.89
2023-01-21T20:55:53.033Z,-35.88
2023-01-21T21:00:58.967Z,-35.91
2023-01-21T21:06:17.731Z,-36.87
2023-01-21T21:11:23.368Z,-36.35
2023-01-21T21:16:33.311Z,-36.39
2023-01-21T21:21:37.294Z,-36.59
2023-01-21T21:26:41.635Z,-36.67
2023-01-21T21:31:46.064Z,-36.69
2023-01-21T21:36:54.451Z,-37.04
2023-01-21T21:42:20.468Z,-37.05
2023-01-21T21:47:47.011Z,-36.99
2023-01-21T21:52:52.926Z,-37.46
2023-01-21T21:57:56.619Z,-36.69
2023-01-21T22:03:03.241Z,-36.70
2023-01-21T22:08:08.676Z,-36.54
2023-01-21T22:13:13.150Z,-36.51
2023-01-21T22:18:20.698Z,-36.51
2023-01-21T22:23:26.725Z,-36.70
2023-01-21T22:28:30.754Z,-36.90
2023-01-21T22:33:40.108Z,-36.87
2023-01-21T22:38:45.923Z,-37.19
2023-01-21T22:43:51.376Z,-37.45
2023-01-21T22:48:55.967Z,-37.74
2023-01-21T22:54:02.712Z,-38.13
2023-01-21T22:59:06.468Z,-37.45
2023-01-21T23:04:10.849Z,-37.56
2023-01-21T23:09:16.701Z,-37.69
2023-01-21T23:14:23.127Z,-38.63
2023-01-21T23:19:27.433Z,-37.57
2023-01-21T23:24:32.977Z,-37.60
2023-01-21T23:29:41.414Z,-37.57
2023-01-21T23:34:48.403Z,-37.65
2023-01-21T23:39:56.986Z,-37.74
2023-01-21T23:45:04.036Z,-37.75
2023-01-21T23:50:11.959Z,-37.69
2023-01-21T23:55:15.775Z,-37.82
